Girard, Louisiana
Current Conditions -  °F | °C
As of 9:53 AM on Wednesday 26 Nov 2014 (Local Time) from KMLU Reporting Station
Clear Clear  
Wind Chill: 57°   Ceiling: Unl
Heat Index: 57°   Visibility: 10mi
Dew Point: 38°   Wind: 13mph
Humidity: 49%   Direction: 220°SW
Pressure: 30.14"   Gusts: 23mph
Location:  32.4475°N, 91.7992°W
Report Text: KMLU 261553Z 22011G20KT 10SM CLR 14/03 A3014 RMK AO2 SLP207 T01390033
Loading
Personal Weather Stations






























Interactive Weather Map New forecast layout! Learn more

10-Day Weather Forecast

Advertisements
Track Severe Weather on mobile